Time;durP1;ratioP1;P1;durP2;ratioP2;P2;SDS_P1;SDS_P2;PMS_P1;PMS_P2;Temp;Humidity;BMP_temperature;BMP_pressure;BME280_temperature;BME280_humidity;BME280_pressure;Samples;Min_cycle;Max_cycle;Signal;HPM_P1;HPM_P2
2024/04/13 00:01:10;;;;;;;7.85;2.40;;;13.00;99.90;;;;;;5487330;26;20082;-71
2024/04/13 00:03:36;;;;;;;5.90;2.17;;;13.00;99.90;;;;;;5487234;26;19998;-71
2024/04/13 00:06:01;;;;;;;6.13;2.25;;;13.00;99.90;;;;;;5487696;26;20013;-71
2024/04/13 00:08:27;;;;;;;5.78;2.22;;;13.00;99.90;;;;;;5485781;26;20002;-71
2024/04/13 00:10:53;;;;;;;4.70;2.50;;;13.00;99.90;;;;;;5487498;26;20002;-71
2024/04/13 00:13:19;;;;;;;5.53;2.03;;;13.10;99.90;;;;;;5487041;26;20008;-71
2024/04/13 00:15:57;;;;;;;4.68;2.00;;;13.00;99.90;;;;;;5487478;26;20002;-71
2024/04/13 00:18:23;;;;;;;8.20;2.30;;;13.00;99.90;;;;;;5487602;26;20010;-71
2024/04/13 00:20:49;;;;;;;4.93;1.90;;;13.00;99.90;;;;;;5485706;26;20002;-71
2024/04/13 00:23:15;;;;;;;6.95;2.20;;;13.00;99.90;;;;;;5485116;26;20093;-72
2024/04/13 00:25:41;;;;;;;5.22;1.77;;;13.00;99.90;;;;;;5487410;26;20002;-71
2024/04/13 00:28:07;;;;;;;5.80;2.17;;;13.00;99.90;;;;;;5487274;26;20002;-71
2024/04/13 00:30:33;;;;;;;5.43;2.38;;;13.00;99.90;;;;;;5487439;26;19999;-71
2024/04/13 00:32:59;;;;;;;5.22;1.70;;;13.00;99.90;;;;;;5487287;26;20013;-71
2024/04/13 00:35:26;;;;;;;6.40;2.00;;;13.00;99.90;;;;;;5486600;26;20002;-71
2024/04/13 00:37:52;;;;;;;5.10;2.00;;;13.00;99.90;;;;;;5487128;26;20010;-71
2024/04/13 00:40:17;;;;;;;5.63;2.30;;;13.00;99.90;;;;;;5486915;26;20383;-71
2024/04/13 00:42:43;;;;;;;9.23;2.40;;;12.90;99.90;;;;;;5487126;26;20002;-71
2024/04/13 00:45:11;;;;;;;7.45;2.42;;;12.90;99.90;;;;;;5486401;26;19998;-71
2024/04/13 00:47:37;;;;;;;5.63;2.40;;;12.90;99.90;;;;;;5485379;26;20482;-72
2024/04/13 00:50:11;;;;;;;4.25;2.08;;;13.00;99.90;;;;;;5486749;26;20538;-71
2024/04/13 00:52:40;;;;;;;6.90;2.20;;;13.00;99.90;;;;;;5486888;26;20012;-71
2024/04/13 00:55:06;;;;;;;6.72;2.38;;;12.90;99.90;;;;;;5486580;26;20403;-71
2024/04/13 00:57:36;;;;;;;3.83;1.80;;;12.90;99.90;;;;;;5486817;26;20079;-71
2024/04/13 01:00:05;;;;;;;6.28;2.30;;;12.90;99.90;;;;;;5486579;26;20017;-72
2024/04/13 01:02:31;;;;;;;4.65;2.53;;;12.90;99.90;;;;;;5487090;26;20002;-71
2024/04/13 01:04:57;;;;;;;4.22;2.25;;;12.90;99.90;;;;;;5484163;26;20470;-71
2024/04/13 01:07:26;;;;;;;3.97;1.90;;;12.90;99.90;;;;;;5486596;26;20013;-71
2024/04/13 01:09:54;;;;;;;5.85;2.15;;;12.90;99.90;;;;;;5486267;26;20013;-72
2024/04/13 01:12:21;;;;;;;5.35;2.17;;;12.80;99.90;;;;;;5488617;26;20129;-71
2024/04/13 01:14:47;;;;;;;5.60;2.00;;;12.80;99.90;;;;;;5489557;26;20534;-71
2024/04/13 01:17:13;;;;;;;4.10;2.20;;;12.80;99.90;;;;;;5488539;26;20010;-71
2024/04/13 01:19:38;;;;;;;3.67;1.92;;;12.80;99.90;;;;;;5489761;26;20070;-71
2024/04/13 01:22:06;;;;;;;5.68;2.67;;;12.80;99.90;;;;;;5489830;26;20014;-71
2024/04/13 01:24:32;;;;;;;4.10;2.05;;;12.80;99.90;;;;;;5489841;26;20013;-71
2024/04/13 01:26:58;;;;;;;5.75;2.15;;;12.70;99.90;;;;;;5490145;26;20002;-71
2024/04/13 01:29:23;;;;;;;6.05;1.83;;;12.70;99.90;;;;;;5489955;26;20074;-71
2024/04/13 01:31:49;;;;;;;2.92;1.70;;;12.70;99.90;;;;;;5489717;26;20003;-71
2024/04/13 01:34:15;;;;;;;4.22;1.80;;;12.70;99.90;;;;;;5489237;26;19998;-71
2024/04/13 01:36:41;;;;;;;7.40;2.78;;;12.70;99.90;;;;;;5488255;26;20461;-71
2024/04/13 01:39:09;;;;;;;4.40;2.45;;;12.70;99.90;;;;;;5489915;26;20013;-71
2024/04/13 01:41:45;;;;;;;5.72;2.25;;;12.70;99.90;;;;;;5489738;26;20002;-71
2024/04/13 01:44:11;;;;;;;3.90;2.00;;;12.70;99.90;;;;;;5489324;26;20009;-71
2024/04/13 01:46:38;;;;;;;5.47;2.00;;;12.70;99.90;;;;;;5489837;26;20002;-71
2024/04/13 01:49:04;;;;;;;7.97;2.03;;;12.70;99.90;;;;;;5489768;26;20008;-71
2024/04/13 01:51:34;;;;;;;5.47;1.70;;;12.60;99.90;;;;;;5488025;26;20066;-72
2024/04/13 01:54:00;;;;;;;5.78;1.63;;;12.60;99.90;;;;;;5487419;26;20002;-71
2024/04/13 01:56:27;;;;;;;8.63;2.22;;;12.60;99.90;;;;;;5487990;26;20002;-71
2024/04/13 01:58:54;;;;;;;5.07;1.85;;;12.60;99.90;;;;;;5489616;26;20453;-71
2024/04/13 02:01:20;;;;;;;5.13;2.10;;;12.60;99.90;;;;;;5489641;26;20006;-71
2024/04/13 02:03:49;;;;;;;7.82;1.95;;;12.60;99.90;;;;;;5487256;26;20002;-71
2024/04/13 02:06:15;;;;;;;5.22;1.65;;;12.60;99.90;;;;;;5489393;26;20009;-71
2024/04/13 02:08:41;;;;;;;5.20;2.47;;;12.60;99.90;;;;;;5489060;26;20002;-71
2024/04/13 02:11:06;;;;;;;7.80;2.15;;;12.60;99.90;;;;;;5489254;26;20005;-71
2024/04/13 02:13:33;;;;;;;4.22;2.00;;;12.60;99.90;;;;;;5487055;26;19999;-71
2024/04/13 02:16:00;;;;;;;5.32;1.90;;;12.50;99.90;;;;;;5489367;26;20029;-71
2024/04/13 02:18:26;;;;;;;5.25;2.38;;;12.50;99.90;;;;;;5489584;26;20339;-72
2024/04/13 02:20:51;;;;;;;4.82;1.95;;;12.60;99.90;;;;;;5489043;26;20010;-71
2024/04/13 02:23:17;;;;;;;6.65;2.63;;;12.50;99.90;;;;;;5487213;26;20473;-71
2024/04/13 02:25:46;;;;;;;6.85;2.33;;;12.50;99.90;;;;;;5489183;26;20003;-71
2024/04/13 02:28:12;;;;;;;6.00;2.53;;;12.50;99.90;;;;;;5489367;26;19998;-71
2024/04/13 02:30:38;;;;;;;6.88;2.22;;;12.50;99.90;;;;;;5488979;26;20013;-71
2024/04/13 02:33:04;;;;;;;6.95;1.70;;;12.50;99.90;;;;;;5487450;26;20030;-71
2024/04/13 02:35:31;;;;;;;7.00;2.30;;;12.50;99.90;;;;;;5488482;26;20010;-72
2024/04/13 02:37:58;;;;;;;4.93;2.33;;;12.40;99.90;;;;;;5487495;26;20066;-71
2024/04/13 02:40:23;;;;;;;5.82;2.13;;;12.40;99.90;;;;;;5488927;26;20006;-72
2024/04/13 02:42:53;;;;;;;6.07;1.83;;;12.40;99.90;;;;;;5488966;26;20002;-71
2024/04/13 02:45:19;;;;;;;5.68;2.40;;;12.40;99.90;;;;;;5488261;26;20034;-71
2024/04/13 02:47:46;;;;;;;7.78;2.17;;;12.40;99.90;;;;;;5488980;26;20074;-71
2024/04/13 02:50:11;;;;;;;10.40;2.55;;;12.40;99.90;;;;;;5488472;26;20450;-71
2024/04/13 02:52:38;;;;;;;5.00;2.17;;;12.30;99.90;;;;;;5488841;26;20036;-71
2024/04/13 02:55:04;;;;;;;6.40;1.83;;;12.40;99.90;;;;;;5488208;26;20002;-71
2024/04/13 02:57:30;;;;;;;6.18;1.73;;;12.30;99.90;;;;;;5487030;26;20034;-71
2024/04/13 02:59:56;;;;;;;6.32;1.90;;;12.30;99.90;;;;;;5488418;26;20038;-71
2024/04/13 03:02:23;;;;;;;5.82;2.22;;;12.30;99.90;;;;;;5488900;26;20470;-71
2024/04/13 03:04:52;;;;;;;7.88;2.60;;;12.20;99.90;;;;;;5481737;26;19998;-72
2024/04/13 03:07:18;;;;;;;5.57;1.90;;;12.20;99.90;;;;;;5473431;26;20002;-71
2024/04/13 03:09:44;;;;;;;5.55;2.63;;;12.30;99.90;;;;;;5475669;26;20075;-71
2024/04/13 03:12:10;;;;;;;9.68;2.70;;;12.20;99.90;;;;;;5473475;26;20010;-71
2024/04/13 03:14:56;;;;;;;7.93;2.38;;;12.20;99.90;;;;;;5486586;26;20074;-71
2024/04/13 03:17:21;;;;;;;5.82;2.00;;;12.20;99.90;;;;;;5488462;26;20010;-71
2024/04/13 03:19:47;;;;;;;10.50;2.97;;;12.20;99.90;;;;;;5488155;26;20449;-71
2024/04/13 03:22:27;;;;;;;9.23;2.78;;;12.10;99.90;;;;;;5488435;26;20002;-71
2024/04/13 03:24:53;;;;;;;9.75;2.35;;;12.10;99.90;;;;;;5487844;26;20028;-71
2024/04/13 03:27:39;;;;;;;8.30;2.47;;;12.10;99.90;;;;;;5487127;26;20009;-72
2024/04/13 03:30:07;;;;;;;11.02;2.38;;;12.10;99.90;;;;;;5488135;26;19998;-71
2024/04/13 03:32:41;;;;;;;9.80;2.10;;;12.10;99.90;;;;;;5488280;26;20397;-71
2024/04/13 03:35:09;;;;;;;7.43;2.60;;;12.00;99.90;;;;;;5485608;26;20009;-72
2024/04/13 03:37:36;;;;;;;9.02;3.28;;;12.00;99.90;;;;;;5488283;26;20017;-71
2024/04/13 03:40:03;;;;;;;8.20;2.50;;;12.00;99.90;;;;;;5487922;26;20006;-71
2024/04/13 03:42:32;;;;;;;6.85;2.50;;;12.00;99.90;;;;;;5488218;26;20010;-71
2024/04/13 03:44:58;;;;;;;11.23;2.60;;;12.00;99.90;;;;;;5485830;26;20012;-71
2024/04/13 03:47:23;;;;;;;13.43;2.88;;;11.90;99.90;;;;;;5487853;26;20021;-71
2024/04/13 03:50:00;;;;;;;8.77;2.38;;;12.00;99.90;;;;;;5487626;26;19998;-71
2024/04/13 03:52:26;;;;;;;14.20;2.92;;;11.90;99.90;;;;;;5487969;26;20074;-71
2024/04/13 03:54:53;;;;;;;8.85;2.78;;;11.90;99.90;;;;;;5487282;26;20002;-71
2024/04/13 03:57:19;;;;;;;7.40;2.70;;;11.90;99.90;;;;;;5488184;26;20002;-71
2024/04/13 03:59:44;;;;;;;5.95;2.28;;;11.90;99.90;;;;;;5486194;26;20074;-72
2024/04/13 04:02:11;;;;;;;9.93;3.20;;;11.90;99.90;;;;;;5486066;26;20013;-72
2024/04/13 04:04:37;;;;;;;7.22;3.03;;;11.90;99.90;;;;;;5487121;26;20082;-71
2024/04/13 04:07:03;;;;;;;6.28;2.40;;;11.90;99.90;;;;;;5487932;26;20464;-71
2024/04/13 04:09:47;;;;;;;9.40;2.67;;;11.90;99.90;;;;;;5486025;26;20003;-71
2024/04/13 04:12:12;;;;;;;8.00;2.20;;;11.90;99.90;;;;;;5487689;26;20013;-71
2024/04/13 04:14:38;;;;;;;11.88;3.10;;;11.80;99.90;;;;;;5482749;26;20010;-71
2024/04/13 04:17:04;;;;;;;14.85;3.13;;;11.70;99.90;;;;;;5464483;26;20071;-71
2024/04/13 04:19:29;;;;;;;8.00;2.70;;;11.80;99.90;;;;;;5451175;26;20014;-71
2024/04/13 04:21:55;;;;;;;5.55;2.53;;;11.80;99.90;;;;;;5450905;26;20011;-72
2024/04/13 04:24:41;;;;;;;8.27;2.65;;;11.80;99.90;;;;;;5449022;26;20003;-71
2024/04/13 04:27:06;;;;;;;12.60;3.42;;;11.70;99.90;;;;;;5449509;26;20003;-71
2024/04/13 04:29:35;;;;;;;9.70;2.90;;;11.70;99.90;;;;;;5450949;26;20003;-71
2024/04/13 04:32:01;;;;;;;14.95;2.97;;;11.70;99.90;;;;;;5450579;26;20072;-71
2024/04/13 04:34:27;;;;;;;9.80;3.08;;;11.70;99.90;;;;;;5450526;26;20003;-71
2024/04/13 04:36:53;;;;;;;8.80;2.53;;;11.60;99.90;;;;;;5451125;26;20013;-71
2024/04/13 04:39:18;;;;;;;6.43;2.50;;;11.60;99.90;;;;;;5450710;26;20404;-71
2024/04/13 04:41:45;;;;;;;9.15;2.35;;;11.60;99.90;;;;;;5449688;26;20503;-71
2024/04/13 04:44:11;;;;;;;10.65;3.13;;;11.60;99.90;;;;;;5448170;26;20003;-71
2024/04/13 04:46:36;;;;;;;7.45;3.15;;;11.60;99.90;;;;;;5452883;26;20014;-71
2024/04/13 04:49:06;;;;;;;11.63;2.80;;;11.60;99.90;;;;;;5454331;26;20375;-71
2024/04/13 04:51:32;;;;;;;12.43;3.22;;;11.60;99.90;;;;;;5452813;26;20013;-71
2024/04/13 04:53:58;;;;;;;10.18;2.83;;;11.60;99.90;;;;;;5482562;26;20486;-71
2024/04/13 04:56:25;;;;;;;11.77;2.85;;;11.50;99.90;;;;;;5452576;26;20018;-72
2024/04/13 04:58:51;;;;;;;10.18;2.92;;;11.60;99.90;;;;;;5454327;26;20002;-72
2024/04/13 05:01:17;;;;;;;10.63;2.50;;;11.60;99.90;;;;;;5453913;26;20013;-71
2024/04/13 05:03:43;;;;;;;9.35;3.75;;;11.60;99.90;;;;;;5453519;26;20002;-71
2024/04/13 05:06:09;;;;;;;5.50;2.92;;;11.60;99.90;;;;;;5454077;26;20476;-72
2024/04/13 05:08:34;;;;;;;9.90;2.78;;;11.60;99.90;;;;;;5453877;26;20011;-71
2024/04/13 05:11:00;;;;;;;10.85;2.40;;;11.60;99.90;;;;;;5453828;26;20010;-71
2024/04/13 05:13:28;;;;;;;8.02;3.35;;;11.60;99.90;;;;;;5453466;26;20135;-71
2024/04/13 05:15:54;;;;;;;9.15;2.65;;;11.60;99.90;;;;;;5453928;26;20003;-72
2024/04/13 05:18:20;;;;;;;12.48;2.83;;;11.70;99.90;;;;;;5453881;26;20013;-71
2024/04/13 05:20:45;;;;;;;7.93;2.60;;;11.70;99.90;;;;;;5453478;26;20003;-72
2024/04/13 05:23:11;;;;;;;7.82;3.53;;;11.70;99.90;;;;;;5453085;26;20010;-72
2024/04/13 05:25:37;;;;;;;9.77;2.42;;;11.70;99.90;;;;;;5453683;26;20014;-71
2024/04/13 05:28:04;;;;;;;18.80;2.80;;;11.70;99.90;;;;;;5452073;26;20480;-71
2024/04/13 05:30:30;;;;;;;7.28;2.65;;;11.80;99.90;;;;;;5451699;26;20010;-71
2024/04/13 05:32:55;;;;;;;8.00;3.17;;;11.80;99.90;;;;;;5451937;26;20014;-71
2024/04/13 05:35:21;;;;;;;8.07;3.13;;;11.80;99.90;;;;;;5452978;26;20505;-72
2024/04/13 05:37:47;;;;;;;12.65;3.17;;;11.90;99.90;;;;;;5453473;26;20079;-73
2024/04/13 05:40:15;;;;;;;14.90;3.95;;;11.90;99.90;;;;;;5482245;26;20003;-71
2024/04/13 05:42:41;;;;;;;9.57;2.72;;;12.00;99.90;;;;;;5451855;26;20061;-72
2024/04/13 05:45:07;;;;;;;9.52;3.22;;;12.00;99.90;;;;;;5452715;26;19999;-71
2024/04/13 05:47:33;;;;;;;13.70;3.10;;;12.10;99.90;;;;;;5451811;26;20004;-72
2024/04/13 05:50:02;;;;;;;9.45;3.60;;;12.10;99.90;;;;;;5452973;26;19999;-72
2024/04/13 05:52:28;;;;;;;16.33;3.25;;;12.20;99.90;;;;;;5451920;26;20003;-72
2024/04/13 05:54:54;;;;;;;10.60;3.33;;;12.30;99.90;;;;;;5451053;26;20014;-72
2024/04/13 05:57:19;;;;;;;7.93;3.75;;;12.30;99.90;;;;;;5453148;26;20458;-71
2024/04/13 05:59:45;;;;;;;9.93;4.13;;;12.40;99.90;;;;;;5452860;26;20017;-72
2024/04/13 06:02:11;;;;;;;12.40;2.67;;;12.40;99.90;;;;;;5453222;26;20440;-72
2024/04/13 06:04:36;;;;;;;14.43;3.25;;;12.50;99.90;;;;;;5485135;20;20025;-75
2024/04/13 06:07:02;;;;;;;9.77;2.97;;;12.60;99.90;;;;;;5526492;26;20001;-75
2024/04/13 06:09:28;;;;;;;9.65;2.97;;;12.60;99.90;;;;;;5526479;25;20449;-75
2024/04/13 06:11:54;;;;;;;13.75;2.88;;;12.70;99.90;;;;;;5526211;26;20515;-75
2024/04/13 06:14:19;;;;;;;10.05;2.83;;;12.70;99.90;;;;;;5523964;26;20380;-75
2024/04/13 06:16:46;;;;;;;9.82;2.80;;;12.80;99.90;;;;;;5524474;26;20005;-75
2024/04/13 06:19:13;;;;;;;10.55;3.75;;;12.90;99.90;;;;;;5526967;25;20461;-75
2024/04/13 06:21:39;;;;;;;7.75;2.60;;;13.00;99.90;;;;;;5526096;25;20002;-75
2024/04/13 06:24:05;;;;;;;8.57;3.38;;;13.00;99.90;;;;;;5524144;26;20080;-75
2024/04/13 06:26:31;;;;;;;10.90;3.63;;;13.20;99.90;;;;;;5525991;25;20015;-75
2024/04/13 06:28:57;;;;;;;9.43;2.60;;;13.20;99.90;;;;;;5526021;26;20345;-75
2024/04/13 06:31:23;;;;;;;14.18;2.70;;;13.40;99.90;;;;;;5524344;26;20009;-75
2024/04/13 06:33:49;;;;;;;7.30;3.65;;;13.40;99.90;;;;;;5525772;25;20001;-75
2024/04/13 06:36:15;;;;;;;10.27;2.58;;;13.60;99.90;;;;;;5526022;26;20012;-76
2024/04/13 06:38:41;;;;;;;10.25;2.97;;;13.70;99.90;;;;;;5526232;25;19997;-75
2024/04/13 06:41:07;;;;;;;12.82;3.20;;;13.80;99.90;;;;;;5525752;25;20009;-75
2024/04/13 06:43:34;;;;;;;9.45;2.65;;;13.90;99.90;;;;;;5523726;26;19998;-75
2024/04/13 06:45:59;;;;;;;10.57;2.50;;;13.90;99.90;;;;;;5525688;26;20372;-75
2024/04/13 06:48:25;;;;;;;11.02;2.70;;;13.90;99.90;;;;;;5525719;26;20010;-75
2024/04/13 06:50:52;;;;;;;15.98;2.95;;;13.90;99.90;;;;;;5523719;26;20001;-75
2024/04/13 06:53:18;;;;;;;10.52;3.05;;;13.80;99.90;;;;;;5525181;26;20016;-75
2024/04/13 06:55:44;;;;;;;9.57;3.25;;;13.80;99.90;;;;;;5525666;26;20001;-75
2024/04/13 06:58:10;;;;;;;11.65;2.75;;;13.80;99.90;;;;;;5525643;26;20013;-75
2024/04/13 07:00:36;;;;;;;9.15;2.92;;;13.90;99.90;;;;;;5525272;26;20070;-76
2024/04/13 07:03:02;;;;;;;17.00;3.13;;;14.20;99.90;;;;;;5525640;26;20012;-76
2024/04/13 07:05:28;;;;;;;9.45;2.55;;;14.40;99.90;;;;;;5514048;26;20006;-75
2024/04/13 07:07:53;;;;;;;12.02;3.95;;;14.70;99.90;;;;;;5505804;26;20016;-75
2024/04/13 07:10:19;;;;;;;8.15;3.03;;;14.90;99.90;;;;;;5503415;25;20006;-75
2024/04/13 07:12:45;;;;;;;11.65;2.83;;;15.00;99.90;;;;;;5507692;26;20016;-76
2024/04/13 07:15:11;;;;;;;10.45;3.25;;;15.00;99.90;;;;;;5507854;26;20021;-75
2024/04/13 07:17:37;;;;;;;7.88;3.05;;;15.00;99.90;;;;;;5520555;26;20460;-75
2024/04/13 07:20:07;;;;;;;9.68;2.90;;;15.00;99.90;;;;;;5525072;26;20460;-76
2024/04/13 07:22:33;;;;;;;13.77;3.75;;;15.10;99.90;;;;;;5525428;26;20005;-75
2024/04/13 07:24:59;;;;;;;11.60;3.53;;;15.20;99.90;;;;;;5524735;25;20349;-75
2024/04/13 07:27:25;;;;;;;11.40;2.97;;;15.30;99.90;;;;;;5525287;25;20008;-75
2024/04/13 07:29:50;;;;;;;10.70;3.15;;;15.40;99.90;;;;;;5524728;26;20002;-75
2024/04/13 07:32:16;;;;;;;9.23;2.88;;;15.40;99.90;;;;;;5525314;26;20437;-75
2024/04/13 07:34:42;;;;;;;10.30;2.78;;;15.50;99.90;;;;;;5524519;26;20095;-75
2024/04/13 07:37:08;;;;;;;7.80;3.42;;;15.40;99.90;;;;;;5525283;26;20457;-78
2024/04/13 07:39:33;;;;;;;8.30;3.67;;;15.40;99.90;;;;;;5525384;25;20013;-75
2024/04/13 07:41:59;;;;;;;8.07;2.47;;;15.50;99.90;;;;;;5524869;26;20008;-75
2024/04/13 07:44:26;;;;;;;12.63;2.55;;;15.60;99.90;;;;;;5518618;26;20034;-77
2024/04/13 07:46:53;;;;;;;9.50;2.75;;;15.60;99.90;;;;;;5507239;26;20028;-76
2024/04/13 07:49:20;;;;;;;9.02;3.42;;;15.70;99.90;;;;;;5502893;26;20466;-75
2024/04/13 07:51:46;;;;;;;11.27;3.05;;;15.80;99.90;;;;;;5487970;26;20186;-75
2024/04/13 07:54:12;;;;;;;10.88;2.85;;;16.00;99.90;;;;;;5487494;26;20010;-76
2024/04/13 07:56:38;;;;;;;6.38;2.33;;;16.20;99.90;;;;;;5487842;26;20002;-75
2024/04/13 07:59:03;;;;;;;13.70;2.70;;;16.00;99.90;;;;;;5487862;26;20017;-74
2024/04/13 08:01:29;;;;;;;15.48;4.72;;;15.90;99.90;;;;;;5487607;26;19998;-75
2024/04/13 08:03:55;;;;;;;16.48;6.20;;;16.00;99.90;;;;;;5487364;26;20002;-75
2024/04/13 08:06:21;;;;;;;10.80;3.63;;;16.00;99.90;;;;;;5487721;26;20526;-76
2024/04/13 08:08:46;;;;;;;7.70;3.05;;;16.30;99.90;;;;;;5487719;26;20002;-75
2024/04/13 08:11:12;;;;;;;8.95;2.90;;;16.40;99.90;;;;;;5487473;26;20021;-76
2024/04/13 08:13:38;;;;;;;10.10;2.88;;;16.40;99.90;;;;;;5487207;26;20446;-77
2024/04/13 08:16:06;;;;;;;8.90;3.00;;;16.60;99.90;;;;;;5496953;26;20013;-75
2024/04/13 08:18:33;;;;;;;9.48;3.05;;;16.80;99.90;;;;;;5519942;26;20001;-77
2024/04/13 08:20:58;;;;;;;5.55;2.65;;;17.00;99.90;;;;;;5513624;26;20030;-76
2024/04/13 08:23:24;;;;;;;7.40;2.67;;;17.10;99.90;;;;;;5506627;26;20013;-75
2024/04/13 08:25:50;;;;;;;7.78;3.40;;;17.30;99.90;;;;;;5504101;26;20006;-75
2024/04/13 08:28:16;;;;;;;8.88;2.88;;;17.70;99.90;;;;;;5504746;26;20457;-73
2024/04/13 08:30:42;;;;;;;11.35;3.60;;;17.70;99.90;;;;;;5492588;26;20004;-75
2024/04/13 08:33:08;;;;;;;12.85;3.13;;;17.80;99.90;;;;;;5506918;26;20012;-75
2024/04/13 08:35:34;;;;;;;9.20;3.28;;;17.70;99.90;;;;;;5509932;26;20002;-75
2024/04/13 08:38:00;;;;;;;11.32;3.92;;;17.70;99.90;;;;;;5500474;26;20052;-75
2024/04/13 08:40:26;;;;;;;12.10;3.35;;;17.60;99.90;;;;;;5517271;26;20106;-75
2024/04/13 08:42:53;;;;;;;9.48;2.80;;;17.50;99.90;;;;;;5508593;26;20357;-74
2024/04/13 08:45:22;;;;;;;8.43;2.53;;;17.50;99.90;;;;;;5523310;25;20413;-72
2024/04/13 08:47:50;;;;;;;7.28;2.72;;;17.30;99.90;;;;;;5523391;25;20001;-72
2024/04/13 08:50:16;;;;;;;11.75;3.03;;;17.30;99.90;;;;;;5523697;25;20066;-72
2024/04/13 08:52:45;;;;;;;8.05;2.88;;;17.30;99.90;;;;;;5523916;25;20009;-72
2024/04/13 08:55:11;;;;;;;9.82;3.33;;;17.40;99.90;;;;;;5523044;25;20006;-72
2024/04/13 08:57:39;;;;;;;7.60;2.67;;;17.40;99.90;;;;;;5523626;26;20002;-72
2024/04/13 09:00:14;;;;;;;8.77;2.47;;;17.30;99.90;;;;;;5523511;25;19998;-72
2024/04/13 09:02:43;;;;;;;8.48;2.88;;;17.40;99.90;;;;;;5523964;25;20024;-72
2024/04/13 09:05:11;;;;;;;10.18;2.80;;;17.40;99.90;;;;;;5522925;25;20480;-73
2024/04/13 09:07:37;;;;;;;8.68;2.60;;;17.50;99.90;;;;;;5523597;25;20471;-71
2024/04/13 09:10:04;;;;;;;15.15;4.47;;;17.60;99.90;;;;;;5523071;26;20001;-72
2024/04/13 09:12:30;;;;;;;6.53;3.15;;;17.70;99.90;;;;;;5523549;25;20338;-71
2024/04/13 09:15:00;;;;;;;11.55;2.65;;;18.00;99.90;;;;;;5522273;25;20006;-70
2024/04/13 09:17:27;;;;;;;9.23;2.88;;;18.20;99.90;;;;;;5507819;25;20001;-71
2024/04/13 09:19:55;;;;;;;8.18;2.80;;;18.40;99.90;;;;;;5520508;26;19997;-71
2024/04/13 09:22:23;;;;;;;9.18;3.65;;;18.60;99.90;;;;;;5523115;25;20002;-71
2024/04/13 09:24:49;;;;;;;8.80;3.42;;;18.60;99.90;;;;;;5522438;26;20010;-72
2024/04/13 09:27:21;;;;;;;5.70;2.78;;;18.60;99.90;;;;;;5523149;26;20046;-72
2024/04/13 09:29:47;;;;;;;6.65;3.05;;;18.70;99.90;;;;;;5522663;26;20464;-71
2024/04/13 09:32:26;;;;;;;6.45;3.13;;;18.50;99.90;;;;;;5525259;26;20012;-72
2024/04/13 09:34:52;;;;;;;7.28;3.35;;;18.70;99.90;;;;;;5526077;25;20476;-71
2024/04/13 09:37:20;;;;;;;8.35;3.33;;;18.70;99.90;;;;;;5526828;25;20472;-71
2024/04/13 09:39:46;;;;;;;8.68;3.83;;;18.90;99.90;;;;;;5514958;25;20006;-71
2024/04/13 09:42:13;;;;;;;9.70;4.50;;;18.80;99.90;;;;;;5495069;26;20006;-72
2024/04/13 09:44:39;;;;;;;6.72;3.60;;;18.50;99.90;;;;;;5489349;26;20012;-72
2024/04/13 09:47:06;;;;;;;7.65;3.10;;;18.60;99.90;;;;;;5489922;26;20456;-72
2024/04/13 09:49:32;;;;;;;9.98;3.67;;;18.60;99.90;;;;;;5489351;26;20009;-72
2024/04/13 09:51:58;;;;;;;6.95;2.67;;;18.60;99.90;;;;;;5489520;26;20042;-72
2024/04/13 09:54:27;;;;;;;9.38;2.97;;;18.60;99.90;;;;;;5488896;26;20013;-71
2024/04/13 09:56:53;;;;;;;7.68;2.63;;;18.70;99.90;;;;;;5489734;26;20013;-72
2024/04/13 09:59:21;;;;;;;6.38;2.75;;;18.90;99.90;;;;;;5489732;26;20557;-72
2024/04/13 10:01:47;;;;;;;5.25;2.80;;;18.80;99.90;;;;;;5495322;26;20006;-72
2024/04/13 10:04:14;;;;;;;5.75;2.58;;;19.00;99.90;;;;;;5505171;25;20005;-72
2024/04/13 10:06:41;;;;;;;8.93;2.88;;;18.90;99.90;;;;;;5506827;25;20063;-72
2024/04/13 10:09:11;;;;;;;6.43;2.80;;;18.90;99.90;;;;;;5507601;25;20082;-71
2024/04/13 10:11:43;;;;;;;7.88;2.45;;;18.90;99.90;;;;;;5508558;26;20368;-71
2024/04/13 10:14:11;;;;;;;6.35;3.03;;;19.20;99.90;;;;;;5508863;26;20477;-72
2024/04/13 10:16:42;;;;;;;4.75;2.45;;;19.30;99.90;;;;;;5509064;26;20401;-71
2024/04/13 10:19:11;;;;;;;6.32;2.38;;;19.10;99.90;;;;;;5509428;26;20831;-72
2024/04/13 10:21:37;;;;;;;5.53;2.22;;;19.10;99.90;;;;;;5524754;26;20338;-72
2024/04/13 10:24:03;;;;;;;6.00;2.25;;;19.10;99.90;;;;;;5525429;26;20009;-72
2024/04/13 10:26:30;;;;;;;4.22;1.88;;;19.10;99.90;;;;;;5526098;26;20468;-73
2024/04/13 10:29:04;;;;;;;3.88;2.05;;;19.10;99.90;;;;;;5526068;25;20360;-72
2024/04/13 10:31:31;;;;;;;4.70;2.22;;;19.00;99.90;;;;;;5526070;26;20399;-73
2024/04/13 10:33:58;;;;;;;5.70;2.35;;;19.10;99.90;;;;;;5523812;26;20001;-73
2024/04/13 10:36:37;;;;;;;5.82;1.92;;;19.10;99.90;;;;;;5526043;25;20001;-73
2024/04/13 10:39:03;;;;;;;7.43;2.83;;;19.10;99.90;;;;;;5525932;25;20461;-73
2024/04/13 10:41:31;;;;;;;5.90;2.55;;;19.00;99.90;;;;;;5525025;25;20007;-73
2024/04/13 10:43:58;;;;;;;5.60;2.40;;;19.00;99.90;;;;;;5503136;25;20233;-73
2024/04/13 10:46:24;;;;;;;5.28;2.20;;;19.10;99.90;;;;;;5500291;25;20020;-72
2024/04/13 10:48:54;;;;;;;5.40;2.20;;;19.10;99.90;;;;;;5490099;25;20002;-71
2024/04/13 10:51:23;;;;;;;4.90;2.30;;;19.10;99.90;;;;;;5488735;26;20012;-71
2024/04/13 10:53:49;;;;;;;9.02;3.05;;;19.10;99.90;;;;;;5488198;26;20512;-71
2024/04/13 10:56:16;;;;;;;7.53;2.45;;;19.10;99.90;;;;;;5488494;26;20002;-71
2024/04/13 10:58:41;;;;;;;5.25;2.42;;;19.10;99.90;;;;;;5489013;26;20013;-71
2024/04/13 11:01:07;;;;;;;8.25;3.55;;;19.10;99.90;;;;;;5488472;26;20461;-71
2024/04/13 11:03:33;;;;;;;5.80;2.70;;;19.20;99.90;;;;;;5488241;26;20008;-71
2024/04/13 11:06:03;;;;;;;7.55;2.38;;;19.30;99.90;;;;;;5489070;26;20028;-72
2024/04/13 11:08:29;;;;;;;5.63;3.20;;;19.20;99.90;;;;;;5488575;26;20305;-72
2024/04/13 11:10:56;;;;;;;7.47;2.50;;;19.20;99.90;;;;;;5488369;26;20013;-71
2024/04/13 11:13:23;;;;;;;6.40;3.05;;;19.20;99.90;;;;;;5487864;26;20048;-72
2024/04/13 11:15:49;;;;;;;7.65;3.38;;;19.10;99.90;;;;;;5488711;26;20010;-71
2024/04/13 11:18:17;;;;;;;6.88;3.38;;;19.10;99.90;;;;;;5488514;26;20321;-72
2024/04/13 11:20:47;;;;;;;10.27;3.03;;;19.00;99.90;;;;;;5488335;26;20004;-72
2024/04/13 11:23:14;;;;;;;4.38;2.40;;;19.10;99.90;;;;;;5487936;26;20656;-72
2024/04/13 11:25:40;;;;;;;7.80;3.55;;;19.20;99.90;;;;;;5488446;26;20013;-72
2024/04/13 11:28:05;;;;;;;5.40;2.67;;;19.20;99.90;;;;;;5488387;26;20402;-72
2024/04/13 11:30:31;;;;;;;5.03;2.78;;;19.20;99.90;;;;;;5487892;26;20009;-72
2024/04/13 11:33:01;;;;;;;7.10;2.40;;;19.20;99.90;;;;;;5488947;26;20534;-72
2024/04/13 11:35:28;;;;;;;6.95;2.88;;;19.40;99.90;;;;;;5487745;26;20002;-72
2024/04/13 11:37:55;;;;;;;4.80;2.45;;;19.40;99.90;;;;;;5487762;26;20065;-72
2024/04/13 11:40:21;;;;;;;4.05;2.10;;;19.50;99.90;;;;;;5501692;26;20036;-72
2024/04/13 11:42:49;;;;;;;6.47;2.97;;;19.50;99.90;;;;;;5488238;26;20006;-72
2024/04/13 11:45:15;;;;;;;7.93;3.22;;;19.70;99.90;;;;;;5487299;26;20070;-72
2024/04/13 11:47:41;;;;;;;7.78;3.00;;;19.60;99.90;;;;;;5488050;26;20456;-72
2024/04/13 11:50:07;;;;;;;8.95;3.20;;;19.70;99.90;;;;;;5487709;26;19994;-72
2024/04/13 11:52:33;;;;;;;7.03;3.05;;;19.70;99.90;;;;;;5487938;26;20530;-72
2024/04/13 11:54:59;;;;;;;6.97;2.88;;;19.80;99.90;;;;;;5487004;26;20343;-72
2024/04/13 11:57:25;;;;;;;7.00;3.25;;;19.70;99.90;;;;;;5486266;26;20014;-72
2024/04/13 11:59:51;;;;;;;6.88;2.78;;;19.70;99.90;;;;;;5485918;26;20442;-72
2024/04/13 12:02:17;;;;;;;6.90;3.40;;;19.70;99.90;;;;;;5487935;26;20012;-72
2024/04/13 12:04:43;;;;;;;9.88;3.67;;;19.70;99.90;;;;;;5497872;26;20400;-72
2024/04/13 12:07:11;;;;;;;5.60;3.47;;;19.80;99.90;;;;;;5511604;21;20070;-70
2024/04/13 12:09:38;;;;;;;6.95;2.95;;;19.80;99.90;;;;;;5451268;26;20339;-70
2024/04/13 12:12:06;;;;;;;5.25;3.35;;;19.90;99.90;;;;;;5484103;26;20002;-73
2024/04/13 12:14:32;;;;;;;7.38;3.60;;;20.00;99.90;;;;;;5483174;26;20369;-73
2024/04/13 12:16:58;;;;;;;5.25;3.47;;;19.90;99.90;;;;;;5484170;26;20006;-73
2024/04/13 12:19:25;;;;;;;5.65;3.22;;;19.80;99.90;;;;;;5484414;26;20014;-73
2024/04/13 12:21:50;;;;;;;6.95;3.30;;;19.70;99.90;;;;;;5484288;26;20002;-72
2024/04/13 12:24:16;;;;;;;4.85;3.28;;;19.60;99.90;;;;;;5485967;26;20074;-73
2024/04/13 12:26:42;;;;;;;5.30;3.05;;;19.60;99.90;;;;;;5487268;26;20013;-72
2024/04/13 12:29:08;;;;;;;6.18;2.75;;;19.60;99.90;;;;;;5487372;26;20074;-73
2024/04/13 12:31:34;;;;;;;5.35;3.13;;;19.60;99.90;;;;;;5487189;26;20017;-72
2024/04/13 12:34:00;;;;;;;3.60;2.33;;;19.60;99.90;;;;;;5486882;26;20002;-72
2024/04/13 12:36:26;;;;;;;4.93;2.65;;;19.50;99.90;;;;;;5486978;26;20029;-75
2024/04/13 12:38:54;;;;;;;9.00;3.03;;;19.50;99.90;;;;;;5455403;26;20002;-75
2024/04/13 12:41:20;;;;;;;4.43;3.05;;;19.60;99.90;;;;;;5486984;26;19998;-75
2024/04/13 12:43:46;;;;;;;4.28;2.80;;;19.60;99.90;;;;;;5486537;26;20350;-75